sensor_id;sensor_type;location;lat;lon;timestamp;P1;durP1;ratioP1;P2;durP2;ratioP2
44102;SDS011;29769;42.178;24.742;2022-11-20T00:00:15;65.95;;;35.65;;
44102;SDS011;29769;42.178;24.742;2022-11-20T00:03:00;65.97;;;38.35;;
44102;SDS011;29769;42.178;24.742;2022-11-20T00:05:45;89.55;;;42.75;;
44102;SDS011;29769;42.178;24.742;2022-11-20T00:08:30;74.82;;;40.65;;
44102;SDS011;29769;42.178;24.742;2022-11-20T00:11:16;70.43;;;39.75;;
44102;SDS011;29769;42.178;24.742;2022-11-20T00:14:03;65.85;;;37.90;;
44102;SDS011;29769;42.178;24.742;2022-11-20T00:19:32;80.00;;;40.80;;
44102;SDS011;29769;42.178;24.742;2022-11-20T00:22:17;64.28;;;38.53;;
44102;SDS011;29769;42.178;24.742;2022-11-20T00:25:02;68.38;;;38.42;;
44102;SDS011;29769;42.178;24.742;2022-11-20T00:27:47;65.72;;;36.42;;
44102;SDS011;29769;42.178;24.742;2022-11-20T00:33:17;66.18;;;36.45;;
44102;SDS011;29769;42.178;24.742;2022-11-20T00:38:51;73.68;;;37.40;;
44102;SDS011;29769;42.178;24.742;2022-11-20T00:41:37;71.35;;;40.03;;
44102;SDS011;29769;42.178;24.742;2022-11-20T00:44:22;69.55;;;37.83;;
44102;SDS011;29769;42.178;24.742;2022-11-20T00:49:52;68.68;;;38.78;;
44102;SDS011;29769;42.178;24.742;2022-11-20T00:52:37;70.32;;;38.58;;
44102;SDS011;29769;42.178;24.742;2022-11-20T00:55:21;82.80;;;41.13;;
44102;SDS011;29769;42.178;24.742;2022-11-20T00:58:06;65.00;;;37.10;;
44102;SDS011;29769;42.178;24.742;2022-11-20T01:00:51;67.85;;;38.05;;
44102;SDS011;29769;42.178;24.742;2022-11-20T01:03:40;64.57;;;34.80;;
44102;SDS011;29769;42.178;24.742;2022-11-20T01:09:15;64.35;;;36.70;;
44102;SDS011;29769;42.178;24.742;2022-11-20T01:12:00;76.85;;;39.35;;
44102;SDS011;29769;42.178;24.742;2022-11-20T01:14:45;69.00;;;38.58;;
44102;SDS011;29769;42.178;24.742;2022-11-20T01:17:31;76.70;;;39.88;;
44102;SDS011;29769;42.178;24.742;2022-11-20T01:20:16;73.65;;;41.00;;
44102;SDS011;29769;42.178;24.742;2022-11-20T01:23:01;68.47;;;38.92;;
44102;SDS011;29769;42.178;24.742;2022-11-20T01:25:47;80.60;;;37.67;;
44102;SDS011;29769;42.178;24.742;2022-11-20T01:28:32;64.88;;;35.08;;
44102;SDS011;29769;42.178;24.742;2022-11-20T01:31:21;65.93;;;30.90;;
44102;SDS011;29769;42.178;24.742;2022-11-20T01:34:10;67.65;;;34.17;;
44102;SDS011;29769;42.178;24.742;2022-11-20T01:36:56;62.97;;;32.78;;
44102;SDS011;29769;42.178;24.742;2022-11-20T01:39:41;67.70;;;33.03;;
44102;SDS011;29769;42.178;24.742;2022-11-20T01:42:26;75.53;;;36.67;;
44102;SDS011;29769;42.178;24.742;2022-11-20T01:51:42;56.50;;;33.15;;
44102;SDS011;29769;42.178;24.742;2022-11-20T01:54:34;57.85;;;31.95;;
44102;SDS011;29769;42.178;24.742;2022-11-20T01:57:24;65.32;;;34.42;;
44102;SDS011;29769;42.178;24.742;2022-11-20T02:00:13;71.88;;;34.63;;
44102;SDS011;29769;42.178;24.742;2022-11-20T02:03:03;70.28;;;33.45;;
44102;SDS011;29769;42.178;24.742;2022-11-20T02:09:01;59.67;;;30.30;;
44102;SDS011;29769;42.178;24.742;2022-11-20T02:14:31;60.65;;;33.92;;
44102;SDS011;29769;42.178;24.742;2022-11-20T02:20:00;61.22;;;33.40;;
44102;SDS011;29769;42.178;24.742;2022-11-20T02:22:51;59.63;;;32.75;;
44102;SDS011;29769;42.178;24.742;2022-11-20T02:25:49;62.47;;;31.60;;
44102;SDS011;29769;42.178;24.742;2022-11-20T02:28:35;59.67;;;29.25;;
44102;SDS011;29769;42.178;24.742;2022-11-20T02:31:21;53.60;;;28.90;;
44102;SDS011;29769;42.178;24.742;2022-11-20T02:34:05;29.15;;;18.67;;
44102;SDS011;29769;42.178;24.742;2022-11-20T02:39:36;44.03;;;24.67;;
44102;SDS011;29769;42.178;24.742;2022-11-20T02:42:21;43.15;;;26.73;;
44102;SDS011;29769;42.178;24.742;2022-11-20T02:45:06;39.25;;;22.63;;
44102;SDS011;29769;42.178;24.742;2022-11-20T02:47:52;42.95;;;23.08;;
44102;SDS011;29769;42.178;24.742;2022-11-20T02:53:23;48.65;;;27.00;;
44102;SDS011;29769;42.178;24.742;2022-11-20T02:58:52;36.65;;;19.92;;
44102;SDS011;29769;42.178;24.742;2022-11-20T03:04:23;46.88;;;24.10;;
44102;SDS011;29769;42.178;24.742;2022-11-20T03:09:53;41.25;;;21.38;;
44102;SDS011;29769;42.178;24.742;2022-11-20T03:15:22;42.50;;;20.98;;
44102;SDS011;29769;42.178;24.742;2022-11-20T03:18:07;28.92;;;15.80;;
44102;SDS011;29769;42.178;24.742;2022-11-20T03:23:41;30.85;;;12.38;;
44102;SDS011;29769;42.178;24.742;2022-11-20T03:29:11;25.20;;;13.48;;
44102;SDS011;29769;42.178;24.742;2022-11-20T03:34:40;26.63;;;13.43;;
44102;SDS011;29769;42.178;24.742;2022-11-20T03:37:26;26.27;;;13.95;;
44102;SDS011;29769;42.178;24.742;2022-11-20T03:40:11;31.35;;;14.55;;
44102;SDS011;29769;42.178;24.742;2022-11-20T03:42:56;33.70;;;12.77;;
44102;SDS011;29769;42.178;24.742;2022-11-20T03:48:26;24.35;;;11.60;;
44102;SDS011;29769;42.178;24.742;2022-11-20T03:54:02;35.53;;;13.80;;
44102;SDS011;29769;42.178;24.742;2022-11-20T03:56:49;27.27;;;11.77;;
44102;SDS011;29769;42.178;24.742;2022-11-20T03:59:33;24.70;;;10.40;;
44102;SDS011;29769;42.178;24.742;2022-11-20T04:02:19;20.55;;;9.82;;
44102;SDS011;29769;42.178;24.742;2022-11-20T04:05:03;21.40;;;9.40;;
44102;SDS011;29769;42.178;24.742;2022-11-20T04:07:49;29.58;;;9.23;;
44102;SDS011;29769;42.178;24.742;2022-11-20T04:10:34;21.73;;;8.55;;
44102;SDS011;29769;42.178;24.742;2022-11-20T04:13:19;20.77;;;8.00;;
44102;SDS011;29769;42.178;24.742;2022-11-20T04:16:04;30.13;;;8.90;;
44102;SDS011;29769;42.178;24.742;2022-11-20T04:18:54;22.67;;;7.68;;
44102;SDS011;29769;42.178;24.742;2022-11-20T04:21:40;28.10;;;8.60;;
44102;SDS011;29769;42.178;24.742;2022-11-20T04:24:26;24.25;;;8.15;;
44102;SDS011;29769;42.178;24.742;2022-11-20T04:29:55;26.17;;;6.55;;
44102;SDS011;29769;42.178;24.742;2022-11-20T04:35:25;26.42;;;6.95;;
44102;SDS011;29769;42.178;24.742;2022-11-20T04:38:09;20.27;;;6.55;;
44102;SDS011;29769;42.178;24.742;2022-11-20T04:43:46;27.20;;;7.68;;
44102;SDS011;29769;42.178;24.742;2022-11-20T04:46:35;19.00;;;7.22;;
44102;SDS011;29769;42.178;24.742;2022-11-20T04:49:21;19.95;;;7.13;;
44102;SDS011;29769;42.178;24.742;2022-11-20T04:52:06;25.83;;;6.85;;
44102;SDS011;29769;42.178;24.742;2022-11-20T04:54:51;18.40;;;6.10;;
44102;SDS011;29769;42.178;24.742;2022-11-20T04:57:37;24.25;;;6.85;;
44102;SDS011;29769;42.178;24.742;2022-11-20T05:00:22;22.08;;;6.80;;
44102;SDS011;29769;42.178;24.742;2022-11-20T05:03:07;17.85;;;6.03;;
44102;SDS011;29769;42.178;24.742;2022-11-20T05:08:36;13.52;;;5.07;;
44102;SDS011;29769;42.178;24.742;2022-11-20T05:11:21;19.10;;;5.53;;
44102;SDS011;29769;42.178;24.742;2022-11-20T05:14:06;15.43;;;5.15;;
44102;SDS011;29769;42.178;24.742;2022-11-20T05:19:36;18.55;;;5.60;;
44102;SDS011;29769;42.178;24.742;2022-11-20T05:25:05;13.63;;;4.57;;
44102;SDS011;29769;42.178;24.742;2022-11-20T05:27:50;10.45;;;4.40;;
44102;SDS011;29769;42.178;24.742;2022-11-20T05:30:35;11.32;;;4.18;;
44102;SDS011;29769;42.178;24.742;2022-11-20T05:33:20;14.50;;;4.68;;
44102;SDS011;29769;42.178;24.742;2022-11-20T05:36:05;16.75;;;5.13;;
44102;SDS011;29769;42.178;24.742;2022-11-20T05:38:51;17.08;;;4.57;;
44102;SDS011;29769;42.178;24.742;2022-11-20T05:44:21;16.83;;;5.05;;
44102;SDS011;29769;42.178;24.742;2022-11-20T05:47:05;10.93;;;3.92;;
44102;SDS011;29769;42.178;24.742;2022-11-20T05:49:50;12.82;;;3.45;;
44102;SDS011;29769;42.178;24.742;2022-11-20T05:52:35;15.35;;;4.60;;
44102;SDS011;29769;42.178;24.742;2022-11-20T05:55:20;11.13;;;4.10;;
44102;SDS011;29769;42.178;24.742;2022-11-20T05:58:05;9.68;;;3.90;;
44102;SDS011;29769;42.178;24.742;2022-11-20T06:00:50;12.65;;;4.07;;
44102;SDS011;29769;42.178;24.742;2022-11-20T06:03:35;12.88;;;3.90;;
44102;SDS011;29769;42.178;24.742;2022-11-20T06:09:05;12.90;;;5.22;;
44102;SDS011;29769;42.178;24.742;2022-11-20T06:11:49;19.50;;;5.78;;
44102;SDS011;29769;42.178;24.742;2022-11-20T06:14:34;17.23;;;5.82;;
44102;SDS011;29769;42.178;24.742;2022-11-20T06:20:04;16.33;;;5.63;;
44102;SDS011;29769;42.178;24.742;2022-11-20T06:22:49;20.15;;;4.85;;
44102;SDS011;29769;42.178;24.742;2022-11-20T06:25:41;17.35;;;4.95;;
44102;SDS011;29769;42.178;24.742;2022-11-20T06:28:26;17.52;;;6.72;;
44102;SDS011;29769;42.178;24.742;2022-11-20T06:31:12;18.45;;;7.00;;
44102;SDS011;29769;42.178;24.742;2022-11-20T06:33:59;20.52;;;6.70;;
44102;SDS011;29769;42.178;24.742;2022-11-20T06:36:44;15.25;;;5.13;;
44102;SDS011;29769;42.178;24.742;2022-11-20T06:42:13;18.85;;;6.32;;
44102;SDS011;29769;42.178;24.742;2022-11-20T06:47:42;10.13;;;4.65;;
44102;SDS011;29769;42.178;24.742;2022-11-20T06:50:27;15.02;;;6.07;;
44102;SDS011;29769;42.178;24.742;2022-11-20T06:53:12;15.73;;;4.70;;
44102;SDS011;29769;42.178;24.742;2022-11-20T06:55:57;25.08;;;4.60;;
44102;SDS011;29769;42.178;24.742;2022-11-20T06:58:42;16.42;;;4.85;;
44102;SDS011;29769;42.178;24.742;2022-11-20T07:01:27;14.45;;;4.93;;
44102;SDS011;29769;42.178;24.742;2022-11-20T07:04:12;12.73;;;4.90;;
44102;SDS011;29769;42.178;24.742;2022-11-20T07:06:57;17.17;;;6.75;;
44102;SDS011;29769;42.178;24.742;2022-11-20T07:09:42;13.35;;;4.78;;
44102;SDS011;29769;42.178;24.742;2022-11-20T07:12:27;15.27;;;5.28;;
44102;SDS011;29769;42.178;24.742;2022-11-20T07:15:12;21.60;;;5.80;;
44102;SDS011;29769;42.178;24.742;2022-11-20T07:17:59;16.85;;;5.70;;
44102;SDS011;29769;42.178;24.742;2022-11-20T07:20:45;18.98;;;6.15;;
44102;SDS011;29769;42.178;24.742;2022-11-20T07:26:14;13.70;;;4.77;;
44102;SDS011;29769;42.178;24.742;2022-11-20T07:28:59;11.48;;;4.43;;
44102;SDS011;29769;42.178;24.742;2022-11-20T07:34:28;13.47;;;4.60;;
44102;SDS011;29769;42.178;24.742;2022-11-20T07:39:58;11.90;;;4.13;;
44102;SDS011;29769;42.178;24.742;2022-11-20T07:42:52;14.65;;;4.30;;
44102;SDS011;29769;42.178;24.742;2022-11-20T07:45:38;13.70;;;4.45;;
44102;SDS011;29769;42.178;24.742;2022-11-20T07:48:23;11.48;;;4.40;;
44102;SDS011;29769;42.178;24.742;2022-11-20T07:51:09;11.90;;;5.53;;
44102;SDS011;29769;42.178;24.742;2022-11-20T07:53:53;19.00;;;4.88;;
44102;SDS011;29769;42.178;24.742;2022-11-20T07:56:38;8.45;;;4.30;;
44102;SDS011;29769;42.178;24.742;2022-11-20T07:59:23;11.60;;;4.88;;
44102;SDS011;29769;42.178;24.742;2022-11-20T08:02:11;17.40;;;4.28;;
44102;SDS011;29769;42.178;24.742;2022-11-20T08:04:56;12.70;;;5.07;;
44102;SDS011;29769;42.178;24.742;2022-11-20T08:07:42;18.88;;;4.57;;
44102;SDS011;29769;42.178;24.742;2022-11-20T08:10:27;25.80;;;6.03;;
44102;SDS011;29769;42.178;24.742;2022-11-20T08:13:12;33.20;;;6.38;;
44102;SDS011;29769;42.178;24.742;2022-11-20T08:16:16;20.10;;;5.20;;
44102;SDS011;29769;42.178;24.742;2022-11-20T08:21:45;15.32;;;4.50;;
44102;SDS011;29769;42.178;24.742;2022-11-20T08:24:29;19.52;;;6.45;;
44102;SDS011;29769;42.178;24.742;2022-11-20T08:27:14;18.85;;;7.03;;
44102;SDS011;29769;42.178;24.742;2022-11-20T08:32:44;21.27;;;6.87;;
44102;SDS011;29769;42.178;24.742;2022-11-20T08:35:32;12.27;;;5.32;;
44102;SDS011;29769;42.178;24.742;2022-11-20T08:38:18;8.63;;;4.85;;
44102;SDS011;29769;42.178;24.742;2022-11-20T08:41:03;14.40;;;4.47;;
44102;SDS011;29769;42.178;24.742;2022-11-20T08:44:07;10.17;;;4.57;;
44102;SDS011;29769;42.178;24.742;2022-11-20T08:46:53;15.75;;;4.70;;
44102;SDS011;29769;42.178;24.742;2022-11-20T08:52:22;13.97;;;4.57;;
44102;SDS011;29769;42.178;24.742;2022-11-20T08:57:52;8.05;;;3.67;;
44102;SDS011;29769;42.178;24.742;2022-11-20T09:00:37;18.17;;;8.02;;
44102;SDS011;29769;42.178;24.742;2022-11-20T09:03:22;12.02;;;4.32;;
44102;SDS011;29769;42.178;24.742;2022-11-20T09:06:07;10.07;;;3.90;;
44102;SDS011;29769;42.178;24.742;2022-11-20T09:11:37;15.10;;;3.40;;
44102;SDS011;29769;42.178;24.742;2022-11-20T09:14:22;9.32;;;2.78;;
44102;SDS011;29769;42.178;24.742;2022-11-20T09:17:09;11.90;;;2.75;;
44102;SDS011;29769;42.178;24.742;2022-11-20T09:19:57;12.82;;;2.90;;
44102;SDS011;29769;42.178;24.742;2022-11-20T09:22:43;10.10;;;2.90;;
44102;SDS011;29769;42.178;24.742;2022-11-20T09:25:28;5.65;;;2.83;;
44102;SDS011;29769;42.178;24.742;2022-11-20T09:28:13;12.57;;;3.17;;
44102;SDS011;29769;42.178;24.742;2022-11-20T09:30:58;8.85;;;2.83;;
44102;SDS011;29769;42.178;24.742;2022-11-20T09:33:43;14.00;;;3.20;;
44102;SDS011;29769;42.178;24.742;2022-11-20T09:39:12;8.38;;;3.28;;
44102;SDS011;29769;42.178;24.742;2022-11-20T09:54:31;7.70;;;2.65;;
44102;SDS011;29769;42.178;24.742;2022-11-20T09:57:21;10.45;;;2.80;;
44102;SDS011;29769;42.178;24.742;2022-11-20T10:00:14;10.05;;;3.42;;
44102;SDS011;29769;42.178;24.742;2022-11-20T10:03:01;6.22;;;2.83;;
44102;SDS011;29769;42.178;24.742;2022-11-20T10:05:54;9.00;;;2.67;;
44102;SDS011;29769;42.178;24.742;2022-11-20T10:08:44;6.85;;;3.00;;
44102;SDS011;29769;42.178;24.742;2022-11-20T10:30:17;14.15;;;3.47;;
44102;SDS011;29769;42.178;24.742;2022-11-20T10:33:11;7.88;;;3.10;;
44102;SDS011;29769;42.178;24.742;2022-11-20T10:36:17;10.85;;;3.42;;
44102;SDS011;29769;42.178;24.742;2022-11-20T10:39:16;10.30;;;3.35;;
44102;SDS011;29769;42.178;24.742;2022-11-20T10:42:14;10.77;;;3.90;;
44102;SDS011;29769;42.178;24.742;2022-11-20T10:48:22;16.85;;;3.65;;
44102;SDS011;29769;42.178;24.742;2022-11-20T11:00:06;12.60;;;3.58;;
44102;SDS011;29769;42.178;24.742;2022-11-20T11:02:54;17.10;;;3.80;;
44102;SDS011;29769;42.178;24.742;2022-11-20T11:05:41;18.02;;;4.90;;
44102;SDS011;29769;42.178;24.742;2022-11-20T11:08:37;18.95;;;4.13;;
44102;SDS011;29769;42.178;24.742;2022-11-20T11:11:26;7.53;;;3.47;;
44102;SDS011;29769;42.178;24.742;2022-11-20T11:14:14;10.23;;;3.00;;
44102;SDS011;29769;42.178;24.742;2022-11-20T11:16:59;9.55;;;3.47;;
44102;SDS011;29769;42.178;24.742;2022-11-20T11:19:44;12.27;;;3.63;;
44102;SDS011;29769;42.178;24.742;2022-11-20T11:22:30;16.08;;;3.97;;
44102;SDS011;29769;42.178;24.742;2022-11-20T11:28:22;9.13;;;2.97;;
44102;SDS011;29769;42.178;24.742;2022-11-20T11:31:10;10.05;;;3.30;;
44102;SDS011;29769;42.178;24.742;2022-11-20T11:34:10;9.57;;;3.30;;
44102;SDS011;29769;42.178;24.742;2022-11-20T11:36:57;9.60;;;2.97;;
44102;SDS011;29769;42.178;24.742;2022-11-20T11:39:44;13.00;;;3.90;;
44102;SDS011;29769;42.178;24.742;2022-11-20T11:42:30;13.88;;;4.90;;
44102;SDS011;29769;42.178;24.742;2022-11-20T11:45:16;24.20;;;4.20;;
44102;SDS011;29769;42.178;24.742;2022-11-20T11:48:04;14.45;;;4.63;;
44102;SDS011;29769;42.178;24.742;2022-11-20T11:50:53;27.85;;;4.28;;
44102;SDS011;29769;42.178;24.742;2022-11-20T11:53:38;14.02;;;3.58;;
44102;SDS011;29769;42.178;24.742;2022-11-20T11:56:27;16.35;;;3.97;;
44102;SDS011;29769;42.178;24.742;2022-11-20T11:59:16;14.48;;;3.03;;
44102;SDS011;29769;42.178;24.742;2022-11-20T12:05:39;21.27;;;4.60;;
44102;SDS011;29769;42.178;24.742;2022-11-20T12:08:39;15.23;;;3.60;;
44102;SDS011;29769;42.178;24.742;2022-11-20T12:11:52;8.05;;;3.80;;
44102;SDS011;29769;42.178;24.742;2022-11-20T12:14:43;12.85;;;3.85;;
44102;SDS011;29769;42.178;24.742;2022-11-20T12:17:32;15.82;;;3.38;;
44102;SDS011;29769;42.178;24.742;2022-11-20T12:20:17;13.95;;;2.75;;
44102;SDS011;29769;42.178;24.742;2022-11-20T12:23:09;22.55;;;3.97;;
44102;SDS011;29769;42.178;24.742;2022-11-20T12:26:11;18.77;;;4.45;;
44102;SDS011;29769;42.178;24.742;2022-11-20T12:29:15;20.08;;;3.53;;
44102;SDS011;29769;42.178;24.742;2022-11-20T12:57:35;28.73;;;5.65;;
44102;SDS011;29769;42.178;24.742;2022-11-20T13:00:47;17.75;;;4.93;;
44102;SDS011;29769;42.178;24.742;2022-11-20T13:03:50;18.10;;;4.78;;
44102;SDS011;29769;42.178;24.742;2022-11-20T13:06:40;26.75;;;5.97;;
44102;SDS011;29769;42.178;24.742;2022-11-20T13:09:25;22.58;;;5.63;;
44102;SDS011;29769;42.178;24.742;2022-11-20T13:12:20;18.65;;;5.18;;
44102;SDS011;29769;42.178;24.742;2022-11-20T13:18:15;17.55;;;5.45;;
44102;SDS011;29769;42.178;24.742;2022-11-20T13:21:01;21.10;;;4.93;;
44102;SDS011;29769;42.178;24.742;2022-11-20T13:24:07;22.48;;;4.63;;
44102;SDS011;29769;42.178;24.742;2022-11-20T13:30:00;7.38;;;2.90;;
44102;SDS011;29769;42.178;24.742;2022-11-20T13:33:07;16.38;;;3.35;;
44102;SDS011;29769;42.178;24.742;2022-11-20T13:36:20;19.48;;;3.38;;
44102;SDS011;29769;42.178;24.742;2022-11-20T13:39:08;16.48;;;3.03;;
44102;SDS011;29769;42.178;24.742;2022-11-20T13:41:54;21.17;;;3.83;;
44102;SDS011;29769;42.178;24.742;2022-11-20T13:45:00;16.17;;;3.08;;
44102;SDS011;29769;42.178;24.742;2022-11-20T13:47:52;22.17;;;4.05;;
44102;SDS011;29769;42.178;24.742;2022-11-20T13:51:27;20.30;;;3.67;;
44102;SDS011;29769;42.178;24.742;2022-11-20T13:56:54;31.27;;;3.97;;
44102;SDS011;29769;42.178;24.742;2022-11-20T14:02:40;17.15;;;2.25;;
44102;SDS011;29769;42.178;24.742;2022-11-20T14:05:26;9.35;;;2.17;;
44102;SDS011;29769;42.178;24.742;2022-11-20T14:08:14;10.77;;;1.80;;
44102;SDS011;29769;42.178;24.742;2022-11-20T14:14:22;17.08;;;2.55;;
44102;SDS011;29769;42.178;24.742;2022-11-20T14:17:17;5.65;;;2.00;;
44102;SDS011;29769;42.178;24.742;2022-11-20T14:20:11;5.68;;;1.10;;
44102;SDS011;29769;42.178;24.742;2022-11-20T14:22:59;2.88;;;1.23;;
44102;SDS011;29769;42.178;24.742;2022-11-20T14:25:44;3.60;;;1.08;;
44102;SDS011;29769;42.178;24.742;2022-11-20T14:28:30;3.10;;;1.30;;
44102;SDS011;29769;42.178;24.742;2022-11-20T14:31:21;4.68;;;0.90;;
44102;SDS011;29769;42.178;24.742;2022-11-20T14:34:17;5.78;;;1.20;;
44102;SDS011;29769;42.178;24.742;2022-11-20T14:37:10;2.50;;;1.27;;
44102;SDS011;29769;42.178;24.742;2022-11-20T14:39:57;3.67;;;0.85;;
44102;SDS011;29769;42.178;24.742;2022-11-20T14:42:43;3.60;;;0.98;;
44102;SDS011;29769;42.178;24.742;2022-11-20T14:48:13;1.88;;;0.70;;
44102;SDS011;29769;42.178;24.742;2022-11-20T14:50:59;2.40;;;1.00;;
44102;SDS011;29769;42.178;24.742;2022-11-20T14:56:28;2.58;;;0.75;;
44102;SDS011;29769;42.178;24.742;2022-11-20T15:02:08;7.80;;;1.30;;
44102;SDS011;29769;42.178;24.742;2022-11-20T15:04:59;3.33;;;1.10;;
44102;SDS011;29769;42.178;24.742;2022-11-20T15:08:05;5.65;;;1.20;;
44102;SDS011;29769;42.178;24.742;2022-11-20T15:10:53;3.72;;;1.40;;
44102;SDS011;29769;42.178;24.742;2022-11-20T15:13:39;2.67;;;0.90;;
44102;SDS011;29769;42.178;24.742;2022-11-20T15:16:24;3.50;;;1.25;;
44102;SDS011;29769;42.178;24.742;2022-11-20T15:19:14;4.55;;;0.93;;
44102;SDS011;29769;42.178;24.742;2022-11-20T15:22:07;6.07;;;1.30;;
44102;SDS011;29769;42.178;24.742;2022-11-20T15:24:57;4.53;;;1.27;;
44102;SDS011;29769;42.178;24.742;2022-11-20T15:33:12;14.02;;;7.57;;
44102;SDS011;29769;42.178;24.742;2022-11-20T15:35:57;10.38;;;3.50;;
44102;SDS011;29769;42.178;24.742;2022-11-20T15:38:41;12.60;;;6.22;;
44102;SDS011;29769;42.178;24.742;2022-11-20T15:41:26;9.15;;;3.83;;
44102;SDS011;29769;42.178;24.742;2022-11-20T15:44:11;3.63;;;2.35;;
44102;SDS011;29769;42.178;24.742;2022-11-20T15:46:56;8.20;;;2.63;;
44102;SDS011;29769;42.178;24.742;2022-11-20T15:52:25;5.03;;;2.85;;
44102;SDS011;29769;42.178;24.742;2022-11-20T15:55:10;4.72;;;2.80;;
44102;SDS011;29769;42.178;24.742;2022-11-20T15:57:55;4.20;;;2.30;;
44102;SDS011;29769;42.178;24.742;2022-11-20T16:00:40;3.63;;;2.42;;
44102;SDS011;29769;42.178;24.742;2022-11-20T16:03:25;7.00;;;2.20;;
44102;SDS011;29769;42.178;24.742;2022-11-20T16:06:10;10.77;;;2.80;;
44102;SDS011;29769;42.178;24.742;2022-11-20T16:11:39;14.35;;;3.22;;
44102;SDS011;29769;42.178;24.742;2022-11-20T16:17:28;9.98;;;3.53;;
44102;SDS011;29769;42.178;24.742;2022-11-20T16:20:26;7.07;;;3.70;;
44102;SDS011;29769;42.178;24.742;2022-11-20T16:23:11;6.38;;;4.00;;
44102;SDS011;29769;42.178;24.742;2022-11-20T16:25:56;5.97;;;3.13;;
44102;SDS011;29769;42.178;24.742;2022-11-20T16:28:41;11.98;;;4.05;;
44102;SDS011;29769;42.178;24.742;2022-11-20T16:31:26;11.10;;;3.42;;
44102;SDS011;29769;42.178;24.742;2022-11-20T16:34:11;19.70;;;3.40;;
44102;SDS011;29769;42.178;24.742;2022-11-20T16:36:57;12.23;;;3.00;;
44102;SDS011;29769;42.178;24.742;2022-11-20T16:39:42;10.95;;;3.60;;
44102;SDS011;29769;42.178;24.742;2022-11-20T16:42:26;5.50;;;3.65;;
44102;SDS011;29769;42.178;24.742;2022-11-20T16:45:11;19.52;;;4.53;;
44102;SDS011;29769;42.178;24.742;2022-11-20T16:47:56;15.60;;;4.00;;
44102;SDS011;29769;42.178;24.742;2022-11-20T16:50:51;17.70;;;4.15;;
44102;SDS011;29769;42.178;24.742;2022-11-20T16:53:37;11.00;;;3.10;;
44102;SDS011;29769;42.178;24.742;2022-11-20T16:56:23;11.88;;;3.90;;
44102;SDS011;29769;42.178;24.742;2022-11-20T16:59:09;13.60;;;3.85;;
44102;SDS011;29769;42.178;24.742;2022-11-20T17:01:54;14.85;;;5.25;;
44102;SDS011;29769;42.178;24.742;2022-11-20T17:04:39;12.70;;;3.88;;
44102;SDS011;29769;42.178;24.742;2022-11-20T17:07:24;12.70;;;5.00;;
44102;SDS011;29769;42.178;24.742;2022-11-20T17:12:54;13.98;;;4.65;;
44102;SDS011;29769;42.178;24.742;2022-11-20T17:15:39;20.27;;;5.68;;
44102;SDS011;29769;42.178;24.742;2022-11-20T17:18:23;15.52;;;4.65;;
44102;SDS011;29769;42.178;24.742;2022-11-20T17:21:11;12.95;;;4.70;;
44102;SDS011;29769;42.178;24.742;2022-11-20T17:23:59;17.85;;;5.40;;
44102;SDS011;29769;42.178;24.742;2022-11-20T17:26:47;11.63;;;5.53;;
44102;SDS011;29769;42.178;24.742;2022-11-20T17:29:32;18.23;;;5.80;;
44102;SDS011;29769;42.178;24.742;2022-11-20T17:32:17;38.28;;;6.10;;
44102;SDS011;29769;42.178;24.742;2022-11-20T17:37:47;20.30;;;5.65;;
44102;SDS011;29769;42.178;24.742;2022-11-20T17:43:16;13.93;;;5.50;;
44102;SDS011;29769;42.178;24.742;2022-11-20T17:48:50;14.20;;;7.38;;
44102;SDS011;29769;42.178;24.742;2022-11-20T17:51:35;12.50;;;4.78;;
44102;SDS011;29769;42.178;24.742;2022-11-20T17:54:20;17.58;;;5.25;;
44102;SDS011;29769;42.178;24.742;2022-11-20T17:57:05;16.45;;;4.85;;
44102;SDS011;29769;42.178;24.742;2022-11-20T18:00:09;19.73;;;5.45;;
44102;SDS011;29769;42.178;24.742;2022-11-20T18:02:56;20.65;;;5.30;;
44102;SDS011;29769;42.178;24.742;2022-11-20T18:08:26;19.38;;;4.97;;
44102;SDS011;29769;42.178;24.742;2022-11-20T18:11:15;22.60;;;6.32;;
44102;SDS011;29769;42.178;24.742;2022-11-20T18:14:06;17.95;;;5.63;;
44102;SDS011;29769;42.178;24.742;2022-11-20T18:17:10;21.10;;;5.05;;
44102;SDS011;29769;42.178;24.742;2022-11-20T18:19:57;15.32;;;5.07;;
44102;SDS011;29769;42.178;24.742;2022-11-20T18:25:27;16.65;;;4.90;;
44102;SDS011;29769;42.178;24.742;2022-11-20T18:28:11;11.75;;;4.28;;
44102;SDS011;29769;42.178;24.742;2022-11-20T18:33:41;17.75;;;4.88;;
44102;SDS011;29769;42.178;24.742;2022-11-20T18:39:12;17.50;;;5.78;;
44102;SDS011;29769;42.178;24.742;2022-11-20T18:41:57;18.30;;;4.70;;
44102;SDS011;29769;42.178;24.742;2022-11-20T18:45:01;18.38;;;5.13;;
44102;SDS011;29769;42.178;24.742;2022-11-20T18:47:48;10.70;;;4.63;;
44102;SDS011;29769;42.178;24.742;2022-11-20T18:53:18;7.25;;;2.67;;
44102;SDS011;29769;42.178;24.742;2022-11-20T19:01:33;12.13;;;3.70;;
44102;SDS011;29769;42.178;24.742;2022-11-20T19:04:19;10.68;;;3.70;;
44102;SDS011;29769;42.178;24.742;2022-11-20T19:09:49;15.88;;;4.20;;
44102;SDS011;29769;42.178;24.742;2022-11-20T19:12:36;13.18;;;4.60;;
44102;SDS011;29769;42.178;24.742;2022-11-20T19:18:06;16.40;;;4.00;;
44102;SDS011;29769;42.178;24.742;2022-11-20T19:23:35;18.05;;;4.88;;
44102;SDS011;29769;42.178;24.742;2022-11-20T19:29:05;14.43;;;4.63;;
44102;SDS011;29769;42.178;24.742;2022-11-20T19:31:51;14.13;;;4.85;;
44102;SDS011;29769;42.178;24.742;2022-11-20T19:34:36;22.83;;;4.25;;
44102;SDS011;29769;42.178;24.742;2022-11-20T19:40:05;10.57;;;4.63;;
44102;SDS011;29769;42.178;24.742;2022-11-20T19:42:51;15.45;;;5.85;;
44102;SDS011;29769;42.178;24.742;2022-11-20T19:45:36;25.05;;;5.88;;
44102;SDS011;29769;42.178;24.742;2022-11-20T19:48:20;23.92;;;5.68;;
44102;SDS011;29769;42.178;24.742;2022-11-20T19:51:09;20.23;;;5.45;;
44102;SDS011;29769;42.178;24.742;2022-11-20T19:53:59;17.27;;;6.60;;
44102;SDS011;29769;42.178;24.742;2022-11-20T19:56:45;23.20;;;6.00;;
44102;SDS011;29769;42.178;24.742;2022-11-20T19:59:31;16.52;;;5.53;;
44102;SDS011;29769;42.178;24.742;2022-11-20T20:02:16;23.83;;;5.30;;
44102;SDS011;29769;42.178;24.742;2022-11-20T20:05:01;17.58;;;5.07;;
44102;SDS011;29769;42.178;24.742;2022-11-20T20:07:45;21.40;;;6.00;;
44102;SDS011;29769;42.178;24.742;2022-11-20T20:10:30;14.43;;;5.57;;
44102;SDS011;29769;42.178;24.742;2022-11-20T20:13:15;22.48;;;6.32;;
44102;SDS011;29769;42.178;24.742;2022-11-20T20:16:00;22.33;;;7.13;;
44102;SDS011;29769;42.178;24.742;2022-11-20T20:18:45;20.60;;;6.15;;
44102;SDS011;29769;42.178;24.742;2022-11-20T20:27:00;21.63;;;7.20;;
44102;SDS011;29769;42.178;24.742;2022-11-20T20:29:44;17.67;;;6.47;;
44102;SDS011;29769;42.178;24.742;2022-11-20T20:32:30;26.17;;;6.95;;
44102;SDS011;29769;42.178;24.742;2022-11-20T20:35:15;21.23;;;5.95;;
44102;SDS011;29769;42.178;24.742;2022-11-20T20:38:00;14.38;;;6.00;;
44102;SDS011;29769;42.178;24.742;2022-11-20T20:40:45;16.23;;;5.28;;
44102;SDS011;29769;42.178;24.742;2022-11-20T20:43:32;25.17;;;6.72;;
44102;SDS011;29769;42.178;24.742;2022-11-20T20:46:37;25.65;;;6.70;;
44102;SDS011;29769;42.178;24.742;2022-11-20T20:49:23;23.15;;;6.30;;
44102;SDS011;29769;42.178;24.742;2022-11-20T20:52:08;20.98;;;6.72;;
44102;SDS011;29769;42.178;24.742;2022-11-20T20:54:54;30.88;;;8.57;;